createdAt,value
2019-01-16T00:04:01.352Z,6.37
2019-01-16T00:09:56.377Z,6.96
2019-01-16T00:15:51.373Z,8.58
2019-01-16T00:21:46.379Z,7.89
2019-01-16T00:27:41.390Z,9.95
2019-01-16T00:33:36.389Z,7.69
2019-01-16T00:39:31.371Z,8.32
2019-01-16T00:45:26.381Z,8.05
2019-01-16T00:51:21.370Z,9.23
2019-01-16T00:57:16.386Z,12.12
2019-01-16T01:03:11.387Z,12.64
2019-01-16T01:09:07.288Z,10.86
2019-01-16T01:15:01.392Z,8.61
2019-01-16T01:20:56.401Z,8.18
2019-01-16T01:26:51.498Z,6.46
2019-01-16T01:32:46.408Z,5.17
2019-01-16T01:38:41.425Z,5.22
2019-01-16T01:44:36.383Z,5.41
2019-01-16T01:50:31.462Z,4.93
2019-01-16T01:56:26.420Z,6.35
2019-01-16T02:02:21.424Z,5.78
2019-01-16T02:08:16.426Z,7.45
2019-01-16T02:14:11.406Z,6.38
2019-01-16T02:20:06.435Z,6.27
2019-01-16T02:26:01.437Z,6.25
2019-01-16T02:31:56.445Z,6.82
2019-01-16T02:37:51.458Z,6.86
2019-01-16T02:43:46.475Z,9.02
2019-01-16T02:49:41.468Z,10.6
2019-01-16T02:55:36.499Z,12.03
2019-01-16T03:01:31.431Z,12.21
2019-01-16T03:07:26.489Z,8.22
2019-01-16T03:13:21.453Z,6.69
2019-01-16T03:19:16.439Z,7.17
2019-01-16T03:25:11.469Z,5.47
2019-01-16T03:31:06.463Z,5.07
2019-01-16T03:37:01.453Z,4.84
2019-01-16T03:43:05.976Z,7.41
2019-01-16T03:48:51.485Z,10.41
2019-01-16T03:54:46.451Z,11.46
2019-01-16T04:00:41.475Z,8.12
2019-01-16T04:06:36.480Z,7.49
2019-01-16T04:12:31.523Z,8.31
2019-01-16T04:18:26.472Z,10.75
2019-01-16T04:24:21.484Z,10.97
2019-01-16T04:30:16.503Z,11.53
2019-01-16T04:36:11.514Z,11.87
2019-01-16T04:42:06.521Z,11.13
2019-01-16T04:48:01.505Z,13
2019-01-16T04:53:56.503Z,13.44
2019-01-16T04:59:51.504Z,13.45
2019-01-16T05:05:46.500Z,14.13
2019-01-16T05:11:41.558Z,13.58
2019-01-16T05:17:36.542Z,11.84
2019-01-16T05:23:31.518Z,12.2
2019-01-16T05:29:26.507Z,11.07
2019-01-16T05:35:21.529Z,12.03
2019-01-16T05:41:16.532Z,11.38
2019-01-16T05:47:11.525Z,11.1
2019-01-16T05:53:06.530Z,12.39
2019-01-16T05:59:01.571Z,10.91
2019-01-16T06:04:56.553Z,11.13
2019-01-16T06:10:57.921Z,10.17
2019-01-16T06:16:46.555Z,10.18
2019-01-16T06:22:41.535Z,10.97
2019-01-16T06:28:36.543Z,10.7
2019-01-16T06:34:31.609Z,9.98
2019-01-16T06:40:26.558Z,10.53
2019-01-16T06:46:21.582Z,10.69
2019-01-16T06:52:16.601Z,11.43
2019-01-16T06:58:11.590Z,12.14
2019-01-16T07:04:06.593Z,12.29
2019-01-16T07:10:01.591Z,11.69
2019-01-16T07:15:56.618Z,11.86
2019-01-16T07:21:51.609Z,13.68
2019-01-16T07:27:46.594Z,12.37
2019-01-16T07:33:41.603Z,11.94
2019-01-16T07:39:36.601Z,14.67
2019-01-16T07:45:31.603Z,13.9
2019-01-16T07:51:26.609Z,13.62
2019-01-16T07:57:21.638Z,14.98
2019-01-16T08:03:16.614Z,18.79
2019-01-16T08:09:14.431Z,15.83
2019-01-16T08:15:06.665Z,16.88
2019-01-16T08:21:01.592Z,20.18
2019-01-16T08:26:56.652Z,22.13
2019-01-16T08:32:51.673Z,21.54
2019-01-16T08:38:46.622Z,21.59
2019-01-16T08:44:41.634Z,22.35
2019-01-16T08:50:36.638Z,21.79
2019-01-16T08:56:31.644Z,21.64
2019-01-16T09:02:26.673Z,25.19
2019-01-16T09:08:21.658Z,22.34
2019-01-16T09:14:16.635Z,22.92
2019-01-16T09:20:11.665Z,22.9
2019-01-16T09:26:06.720Z,24.9
2019-01-16T09:32:01.663Z,25.92
2019-01-16T09:37:56.645Z,30.19
2019-01-16T09:43:51.635Z,38.36
2019-01-16T09:49:46.665Z,46.92
2019-01-16T09:55:41.678Z,46.33
2019-01-16T10:01:36.673Z,48
2019-01-16T10:07:31.675Z,40.15
2019-01-16T10:13:26.699Z,36.3
2019-01-16T10:19:21.729Z,33.73
2019-01-16T10:25:16.698Z,34.88
2019-01-16T10:31:11.678Z,30.74
2019-01-16T10:37:06.687Z,21.88
2019-01-16T10:43:01.696Z,15.24
2019-01-16T10:48:56.711Z,14.06
2019-01-16T10:54:51.711Z,16.07
2019-01-16T11:00:46.781Z,16.76
2019-01-16T11:06:41.689Z,20.06
2019-01-16T11:12:36.730Z,19.47
2019-01-16T11:18:31.744Z,14.69
2019-01-16T11:24:26.711Z,17.9
2019-01-16T11:30:21.736Z,13.93
2019-01-16T11:36:16.738Z,14.13
2019-01-16T11:42:11.738Z,16.48
2019-01-16T11:48:06.724Z,12.91
2019-01-16T11:54:01.721Z,17.11
2019-01-16T11:59:56.754Z,14.1
2019-01-16T12:05:51.770Z,14.66
2019-01-16T12:11:46.726Z,13.48
2019-01-16T12:17:41.775Z,11.85
2019-01-16T12:23:36.778Z,14.05
2019-01-16T12:29:31.756Z,14.08
2019-01-16T12:35:26.783Z,14.14
2019-01-16T12:41:21.803Z,14.61
2019-01-16T12:47:16.791Z,13.34
2019-01-16T12:53:11.775Z,13.71
2019-01-16T12:59:06.781Z,28.19
2019-01-16T13:05:01.811Z,12.98
2019-01-16T13:10:56.772Z,11.51
2019-01-16T13:16:51.790Z,10.1
2019-01-16T13:22:46.803Z,8.34
2019-01-16T13:28:41.824Z,7.14
2019-01-16T13:34:36.786Z,11.69
2019-01-16T13:40:31.774Z,10.19
2019-01-16T13:46:26.880Z,5.69
2019-01-16T13:52:21.795Z,5.9
2019-01-16T13:58:16.810Z,6.67
2019-01-16T14:04:11.798Z,6.67
2019-01-16T14:10:06.836Z,6.73
2019-01-16T14:16:01.799Z,7.27
2019-01-16T14:21:56.824Z,6.57
2019-01-16T14:27:51.813Z,4.54
2019-01-16T14:33:46.811Z,3.79
2019-01-16T14:39:41.831Z,4.4
2019-01-16T14:45:36.837Z,4.06
2019-01-16T14:51:31.839Z,4.87
2019-01-16T14:57:26.843Z,4.71
2019-01-16T15:03:21.863Z,5.03
2019-01-16T15:09:16.859Z,5.43
2019-01-16T15:15:11.845Z,5.79
2019-01-16T15:21:06.881Z,5.85
2019-01-16T15:27:01.865Z,6.63
2019-01-16T15:32:56.860Z,5.7
2019-01-16T15:38:51.868Z,9.2
2019-01-16T15:44:46.891Z,10.15
2019-01-16T15:50:41.881Z,8.04
2019-01-16T15:56:36.905Z,9.03
2019-01-16T16:02:31.893Z,8.93
2019-01-16T16:08:26.883Z,7.27
2019-01-16T16:14:21.936Z,7.69
2019-01-16T16:20:16.872Z,9.5
2019-01-16T16:26:11.894Z,9.17
2019-01-16T16:32:06.915Z,8.6
2019-01-16T16:38:01.936Z,9.97
2019-01-16T16:43:56.912Z,9.82
2019-01-16T16:49:51.901Z,8.8
2019-01-16T16:55:46.947Z,9.69
2019-01-16T17:01:41.905Z,9.04
2019-01-16T17:07:36.922Z,8.59
2019-01-16T17:13:31.955Z,9.48
2019-01-16T17:19:26.906Z,8.75
2019-01-16T17:25:21.924Z,12.07
2019-01-16T17:31:16.926Z,10.6
2019-01-16T17:37:11.945Z,12.41
2019-01-16T17:43:07.015Z,10.4
2019-01-16T17:49:01.935Z,10.24
2019-01-16T17:54:56.924Z,9
2019-01-16T18:00:51.934Z,8.71
2019-01-16T18:06:46.971Z,7.73
2019-01-16T18:12:41.962Z,7.14
2019-01-16T18:18:36.958Z,8.18
2019-01-16T18:24:31.996Z,9.14
2019-01-16T18:30:26.945Z,8.5
2019-01-16T18:36:21.958Z,8.78
2019-01-16T18:42:16.987Z,8.32
2019-01-16T18:48:11.968Z,8.08
2019-01-16T18:54:06.982Z,6.9
2019-01-16T19:00:01.986Z,6.7
2019-01-16T19:05:57.008Z,5.73
2019-01-16T19:11:51.997Z,6.83
2019-01-16T19:17:47.032Z,7.16
2019-01-16T19:23:41.999Z,13.44
2019-01-16T19:29:36.982Z,15.64
2019-01-16T19:35:31.998Z,11.8
2019-01-16T19:41:27.012Z,9.48
2019-01-16T19:47:21.999Z,8.74
2019-01-16T19:53:17.007Z,10.66
2019-01-16T19:59:12.036Z,9.35
2019-01-16T20:05:07.016Z,9.07
2019-01-16T20:11:02.027Z,9.37
2019-01-16T20:16:57.009Z,8.2
2019-01-16T20:22:52.074Z,8.73
2019-01-16T20:28:47.041Z,9.47
2019-01-16T20:34:42.027Z,8.96
2019-01-16T20:40:37.038Z,10.3
2019-01-16T20:46:32.122Z,10.37
2019-01-16T20:52:27.044Z,11.83
2019-01-16T20:58:22.036Z,12
2019-01-16T21:04:17.045Z,11.68
2019-01-16T21:10:12.057Z,11.86
2019-01-16T21:16:07.073Z,11.67
2019-01-16T21:22:02.075Z,9.81
2019-01-16T21:27:57.064Z,9
2019-01-16T21:33:52.059Z,9.03
2019-01-16T21:39:47.102Z,8.67
2019-01-16T21:45:42.072Z,8.11
2019-01-16T21:51:37.095Z,7.35
2019-01-16T21:57:32.070Z,7.02
2019-01-16T22:03:27.093Z,7.26
2019-01-16T22:09:22.102Z,8.37
2019-01-16T22:15:17.101Z,6.52
2019-01-16T22:21:12.119Z,6.27
2019-01-16T22:27:07.102Z,5.69
2019-01-16T22:33:02.082Z,5.9
2019-01-16T22:38:57.183Z,5.5
2019-01-16T22:44:52.113Z,5.83
2019-01-16T22:50:47.107Z,5.99
2019-01-16T22:56:42.147Z,5.65
2019-01-16T23:02:37.168Z,5.62
2019-01-16T23:08:32.149Z,5.87
2019-01-16T23:14:27.172Z,5.15
2019-01-16T23:20:22.145Z,5.16
2019-01-16T23:26:17.142Z,5.07
2019-01-16T23:32:12.146Z,4.45
2019-01-16T23:38:07.180Z,4.89
2019-01-16T23:44:02.140Z,4.91
2019-01-16T23:49:57.132Z,5.47
2019-01-16T23:55:52.191Z,5.46
